Davenport, CA (95017)

5:31 PM PDT on August 31, 2015 (GMT -0700)
Forest Springs | | Change Station
CLOSE
Current Station
Personal Weather Station
Location: Boulder Creek, CA
Elevation: 876 ft
Nearby Weather Stations

Elev 876 ft 37.14 °N, 122.15 °W | Updated 7 minutes ago

Clear
Clear
77.5 °F
Feels Like 79 °F
N
0.0
Wind Variable Wind from NNE

Today
High -- | Low -- °F
--% Chance of Precip.
Yesterday
High -- | Low -- °F
Precip. -- in
6:38 AM 7:39 PM
Waning Gibbous, 93% visible
Pressure 29.89 in
Visibility 10.0 miles
Clouds Clear
Heat Index 79 °F
Dew Point 54 °F
Humidity 45%
Rainfall 0.00 in
Snow Depth Not available.
UV 3 out of 12
Pollen 6.60 out of 12
Air Quality Not available.
Flu Activity Not available.
METAR KWVI 312353Z AUTO 14008KT 10SM CLR 22/14 A2990 RMK AO2 SLP122 T02220144 10256 20200 56010
Pressure 29.89 in
Visibility 10.0 miles
Clouds Clear
Heat Index 79 °F
Dew Point 54 °F
Humidity 45%
Rainfall 0.00 in
Snow Depth Not available.
UV 3 out of 12
Pollen 6.60 out of 12
Air Quality Not available.
Flu Activity Not available.
METAR KWVI 312353Z AUTO 14008KT 10SM CLR 22/14 A2990 RMK AO2 SLP122 T02220144 10256 20200 56010

10-Day Weather Forecast

×

Almanac

Astronomy

Aug. 31, 2015 Rise Set
Actual Time
Civil Twilight
Nautical Twilight
Astronomical Twilight
Moon
Length of Visible Light
Length of Day
Tomorrow will be .
, % of the Moon is Illuminated

Today's Extremes

State Highs State Lows

Community

WunderPhotos

Upload Photos

1,851,406 photos uploaded!

WunderBlogs® & News

Nearby

Air Quality

  Air Quality AQ Index Pollutant
Not available.

Snow Depth

Station Depth Elevation

Earthquake Activity

City Distance Mag. Time & Date
Minimum magnitude displayed is 2.5.

Coastal Water Temperatures

Place Temperature

Stations

Nearby Weather Stations

Station Location Temp. Windchill Dew Point Humidity Wind Precip. Elev Updated Type